sensor_id;sensor_type;location;lat;lon;timestamp;P1;durP1;ratioP1;P2;durP2;ratioP2
52962;SDS011;38827;53.024;6.596;2023-06-05T00:02:40;11.98;;;5.80;;
52962;SDS011;38827;53.024;6.596;2023-06-05T00:05:06;11.27;;;5.80;;
52962;SDS011;38827;53.024;6.596;2023-06-05T00:07:50;10.73;;;5.72;;
52962;SDS011;38827;53.024;6.596;2023-06-05T00:10:15;8.65;;;5.78;;
52962;SDS011;38827;53.024;6.596;2023-06-05T00:12:41;12.35;;;5.75;;
52962;SDS011;38827;53.024;6.596;2023-06-05T00:15:07;9.27;;;6.00;;
52962;SDS011;38827;53.024;6.596;2023-06-05T00:17:33;8.20;;;5.28;;
52962;SDS011;38827;53.024;6.596;2023-06-05T00:19:59;9.38;;;5.95;;
52962;SDS011;38827;53.024;6.596;2023-06-05T00:24:55;10.23;;;6.38;;
52962;SDS011;38827;53.024;6.596;2023-06-05T00:27:21;10.60;;;5.90;;
52962;SDS011;38827;53.024;6.596;2023-06-05T00:29:46;9.20;;;5.75;;
52962;SDS011;38827;53.024;6.596;2023-06-05T00:32:12;11.18;;;5.90;;
52962;SDS011;38827;53.024;6.596;2023-06-05T00:34:38;8.95;;;6.10;;
52962;SDS011;38827;53.024;6.596;2023-06-05T00:37:03;9.57;;;5.70;;
52962;SDS011;38827;53.024;6.596;2023-06-05T00:39:32;9.88;;;6.68;;
52962;SDS011;38827;53.024;6.596;2023-06-05T00:41:58;9.27;;;6.40;;
52962;SDS011;38827;53.024;6.596;2023-06-05T00:44:24;9.35;;;6.40;;
52962;SDS011;38827;53.024;6.596;2023-06-05T00:46:50;10.50;;;6.85;;
52962;SDS011;38827;53.024;6.596;2023-06-05T00:49:17;14.25;;;6.95;;
52962;SDS011;38827;53.024;6.596;2023-06-05T00:51:44;9.82;;;6.68;;
52962;SDS011;38827;53.024;6.596;2023-06-05T00:54:14;12.40;;;7.35;;
52962;SDS011;38827;53.024;6.596;2023-06-05T00:56:44;9.60;;;6.55;;
52962;SDS011;38827;53.024;6.596;2023-06-05T00:59:10;11.70;;;7.40;;
52962;SDS011;38827;53.024;6.596;2023-06-05T01:01:39;9.23;;;7.03;;
52962;SDS011;38827;53.024;6.596;2023-06-05T01:04:07;11.88;;;7.05;;
52962;SDS011;38827;53.024;6.596;2023-06-05T01:06:34;10.50;;;7.20;;
52962;SDS011;38827;53.024;6.596;2023-06-05T01:09:03;11.38;;;7.03;;
52962;SDS011;38827;53.024;6.596;2023-06-05T01:14:22;12.88;;;6.65;;
52962;SDS011;38827;53.024;6.596;2023-06-05T01:17:19;10.88;;;6.78;;
52962;SDS011;38827;53.024;6.596;2023-06-05T01:19:45;9.30;;;6.45;;
52962;SDS011;38827;53.024;6.596;2023-06-05T01:22:17;11.80;;;6.93;;
52962;SDS011;38827;53.024;6.596;2023-06-05T01:24:43;12.60;;;7.00;;
52962;SDS011;38827;53.024;6.596;2023-06-05T01:27:15;12.68;;;7.40;;
52962;SDS011;38827;53.024;6.596;2023-06-05T01:29:55;11.23;;;7.60;;
52962;SDS011;38827;53.024;6.596;2023-06-05T01:32:29;13.15;;;7.55;;
52962;SDS011;38827;53.024;6.596;2023-06-05T01:35:02;10.95;;;7.13;;
52962;SDS011;38827;53.024;6.596;2023-06-05T01:37:33;12.65;;;8.07;;
52962;SDS011;38827;53.024;6.596;2023-06-05T01:40:10;13.10;;;7.93;;
52962;SDS011;38827;53.024;6.596;2023-06-05T01:42:40;10.75;;;7.55;;
52962;SDS011;38827;53.024;6.596;2023-06-05T01:45:07;12.93;;;7.53;;
52962;SDS011;38827;53.024;6.596;2023-06-05T01:47:37;11.63;;;8.20;;
52962;SDS011;38827;53.024;6.596;2023-06-05T01:50:04;13.77;;;8.98;;
52962;SDS011;38827;53.024;6.596;2023-06-05T01:54:56;12.13;;;8.70;;
52962;SDS011;38827;53.024;6.596;2023-06-05T01:57:37;12.30;;;9.32;;
52962;SDS011;38827;53.024;6.596;2023-06-05T02:00:02;16.98;;;9.90;;
52962;SDS011;38827;53.024;6.596;2023-06-05T02:02:35;13.13;;;9.65;;
52962;SDS011;38827;53.024;6.596;2023-06-05T02:07:28;14.45;;;9.63;;
52962;SDS011;38827;53.024;6.596;2023-06-05T02:09:53;13.85;;;8.82;;
52962;SDS011;38827;53.024;6.596;2023-06-05T02:12:20;12.05;;;8.38;;
52962;SDS011;38827;53.024;6.596;2023-06-05T02:14:51;15.13;;;8.95;;
52962;SDS011;38827;53.024;6.596;2023-06-05T02:17:17;14.90;;;8.70;;
52962;SDS011;38827;53.024;6.596;2023-06-05T02:19:42;13.10;;;9.27;;
52962;SDS011;38827;53.024;6.596;2023-06-05T02:22:08;12.57;;;8.38;;
52962;SDS011;38827;53.024;6.596;2023-06-05T02:24:34;13.98;;;9.18;;
52962;SDS011;38827;53.024;6.596;2023-06-05T02:26:59;14.93;;;8.95;;
52962;SDS011;38827;53.024;6.596;2023-06-05T02:29:25;12.73;;;8.88;;
52962;SDS011;38827;53.024;6.596;2023-06-05T02:31:51;15.10;;;8.63;;
52962;SDS011;38827;53.024;6.596;2023-06-05T02:34:16;12.68;;;8.90;;
52962;SDS011;38827;53.024;6.596;2023-06-05T02:36:42;14.98;;;9.23;;
52962;SDS011;38827;53.024;6.596;2023-06-05T02:39:10;12.50;;;8.70;;
52962;SDS011;38827;53.024;6.596;2023-06-05T02:41:37;13.77;;;8.98;;
52962;SDS011;38827;53.024;6.596;2023-06-05T02:44:03;12.82;;;9.00;;
52962;SDS011;38827;53.024;6.596;2023-06-05T02:46:29;14.55;;;8.90;;
52962;SDS011;38827;53.024;6.596;2023-06-05T02:48:56;11.32;;;8.77;;
52962;SDS011;38827;53.024;6.596;2023-06-05T02:51:22;12.52;;;8.60;;
52962;SDS011;38827;53.024;6.596;2023-06-05T02:53:48;10.57;;;8.38;;
52962;SDS011;38827;53.024;6.596;2023-06-05T02:56:13;13.27;;;8.73;;
52962;SDS011;38827;53.024;6.596;2023-06-05T02:58:40;11.73;;;8.95;;
52962;SDS011;38827;53.024;6.596;2023-06-05T03:01:09;11.68;;;8.30;;
52962;SDS011;38827;53.024;6.596;2023-06-05T03:03:35;10.00;;;7.78;;
52962;SDS011;38827;53.024;6.596;2023-06-05T03:06:01;9.85;;;7.43;;
52962;SDS011;38827;53.024;6.596;2023-06-05T03:08:32;14.35;;;8.30;;
52962;SDS011;38827;53.024;6.596;2023-06-05T03:10:59;11.38;;;7.97;;
52962;SDS011;38827;53.024;6.596;2023-06-05T03:13:25;11.55;;;7.75;;
52962;SDS011;38827;53.024;6.596;2023-06-05T03:15:51;10.93;;;7.68;;
52962;SDS011;38827;53.024;6.596;2023-06-05T03:20:46;9.98;;;7.25;;
52962;SDS011;38827;53.024;6.596;2023-06-05T03:23:16;10.55;;;7.28;;
52962;SDS011;38827;53.024;6.596;2023-06-05T03:25:42;11.13;;;7.68;;
52962;SDS011;38827;53.024;6.596;2023-06-05T03:28:07;9.18;;;7.22;;
52962;SDS011;38827;53.024;6.596;2023-06-05T03:30:36;12.13;;;7.50;;
52962;SDS011;38827;53.024;6.596;2023-06-05T03:33:02;12.98;;;7.70;;
52962;SDS011;38827;53.024;6.596;2023-06-05T03:35:29;10.10;;;7.88;;
52962;SDS011;38827;53.024;6.596;2023-06-05T03:37:55;8.77;;;7.22;;
52962;SDS011;38827;53.024;6.596;2023-06-05T03:40:22;12.27;;;7.13;;
52962;SDS011;38827;53.024;6.596;2023-06-05T03:42:48;11.43;;;7.25;;
52962;SDS011;38827;53.024;6.596;2023-06-05T03:45:14;9.93;;;7.03;;
52962;SDS011;38827;53.024;6.596;2023-06-05T03:47:42;11.65;;;8.27;;
52962;SDS011;38827;53.024;6.596;2023-06-05T03:50:13;10.13;;;7.00;;
52962;SDS011;38827;53.024;6.596;2023-06-05T03:52:40;10.43;;;7.38;;
52962;SDS011;38827;53.024;6.596;2023-06-05T03:55:06;8.93;;;7.45;;
52962;SDS011;38827;53.024;6.596;2023-06-05T03:57:33;9.75;;;7.05;;
52962;SDS011;38827;53.024;6.596;2023-06-05T03:59:59;13.43;;;7.63;;
52962;SDS011;38827;53.024;6.596;2023-06-05T04:02:25;11.85;;;7.07;;
52962;SDS011;38827;53.024;6.596;2023-06-05T04:04:51;10.10;;;7.32;;
52962;SDS011;38827;53.024;6.596;2023-06-05T04:07:17;13.75;;;6.88;;
52962;SDS011;38827;53.024;6.596;2023-06-05T04:09:44;12.00;;;7.50;;
52962;SDS011;38827;53.024;6.596;2023-06-05T04:12:09;8.40;;;6.63;;
52962;SDS011;38827;53.024;6.596;2023-06-05T04:14:35;12.90;;;7.00;;
52962;SDS011;38827;53.024;6.596;2023-06-05T04:17:02;11.38;;;7.30;;
52962;SDS011;38827;53.024;6.596;2023-06-05T04:19:28;10.68;;;7.40;;
52962;SDS011;38827;53.024;6.596;2023-06-05T04:21:53;11.38;;;7.22;;
52962;SDS011;38827;53.024;6.596;2023-06-05T04:24:19;10.85;;;7.05;;
52962;SDS011;38827;53.024;6.596;2023-06-05T04:26:45;8.88;;;6.70;;
52962;SDS011;38827;53.024;6.596;2023-06-05T04:29:12;11.50;;;6.35;;
52962;SDS011;38827;53.024;6.596;2023-06-05T04:31:43;10.10;;;6.30;;
52962;SDS011;38827;53.024;6.596;2023-06-05T04:34:10;8.23;;;6.18;;
52962;SDS011;38827;53.024;6.596;2023-06-05T04:36:37;7.10;;;5.53;;
52962;SDS011;38827;53.024;6.596;2023-06-05T04:39:03;8.15;;;5.38;;
52962;SDS011;38827;53.024;6.596;2023-06-05T04:41:30;7.00;;;5.85;;
52962;SDS011;38827;53.024;6.596;2023-06-05T04:43:57;9.02;;;5.70;;
52962;SDS011;38827;53.024;6.596;2023-06-05T04:46:25;6.82;;;5.20;;
52962;SDS011;38827;53.024;6.596;2023-06-05T04:48:51;7.60;;;5.70;;
52962;SDS011;38827;53.024;6.596;2023-06-05T04:51:20;6.30;;;5.25;;
52962;SDS011;38827;53.024;6.596;2023-06-05T04:53:47;8.48;;;6.13;;
52962;SDS011;38827;53.024;6.596;2023-06-05T04:56:17;8.52;;;6.80;;
52962;SDS011;38827;53.024;6.596;2023-06-05T04:58:46;8.52;;;6.60;;
52962;SDS011;38827;53.024;6.596;2023-06-05T05:01:13;9.77;;;7.57;;
52962;SDS011;38827;53.024;6.596;2023-06-05T05:03:38;9.32;;;7.38;;
52962;SDS011;38827;53.024;6.596;2023-06-05T05:06:07;9.43;;;7.75;;
52962;SDS011;38827;53.024;6.596;2023-06-05T05:08:33;9.90;;;7.20;;
52962;SDS011;38827;53.024;6.596;2023-06-05T05:11:01;10.00;;;7.43;;
52962;SDS011;38827;53.024;6.596;2023-06-05T05:13:27;8.82;;;7.00;;
52962;SDS011;38827;53.024;6.596;2023-06-05T05:15:52;10.60;;;8.43;;
52962;SDS011;38827;53.024;6.596;2023-06-05T05:18:19;9.95;;;8.32;;
52962;SDS011;38827;53.024;6.596;2023-06-05T05:20:45;10.35;;;7.97;;
52962;SDS011;38827;53.024;6.596;2023-06-05T05:23:22;10.52;;;7.65;;
52962;SDS011;38827;53.024;6.596;2023-06-05T05:25:48;11.20;;;7.22;;
52962;SDS011;38827;53.024;6.596;2023-06-05T05:28:14;10.80;;;7.25;;
52962;SDS011;38827;53.024;6.596;2023-06-05T05:30:39;8.90;;;6.00;;
52962;SDS011;38827;53.024;6.596;2023-06-05T05:33:05;8.15;;;5.30;;
52962;SDS011;38827;53.024;6.596;2023-06-05T05:35:31;8.00;;;4.50;;
52962;SDS011;38827;53.024;6.596;2023-06-05T05:37:57;6.75;;;4.97;;
52962;SDS011;38827;53.024;6.596;2023-06-05T05:40:22;5.10;;;3.72;;
52962;SDS011;38827;53.024;6.596;2023-06-05T05:42:54;7.35;;;4.47;;
52962;SDS011;38827;53.024;6.596;2023-06-05T05:45:20;6.07;;;4.15;;
52962;SDS011;38827;53.024;6.596;2023-06-05T05:50:13;5.90;;;4.67;;
52962;SDS011;38827;53.024;6.596;2023-06-05T05:52:38;6.22;;;4.20;;
52962;SDS011;38827;53.024;6.596;2023-06-05T05:55:13;6.88;;;4.15;;
52962;SDS011;38827;53.024;6.596;2023-06-05T05:57:39;7.07;;;4.40;;
52962;SDS011;38827;53.024;6.596;2023-06-05T06:00:05;6.65;;;4.40;;
52962;SDS011;38827;53.024;6.596;2023-06-05T06:02:40;7.50;;;4.07;;
52962;SDS011;38827;53.024;6.596;2023-06-05T06:05:06;5.82;;;4.10;;
52962;SDS011;38827;53.024;6.596;2023-06-05T06:07:32;6.07;;;4.10;;
52962;SDS011;38827;53.024;6.596;2023-06-05T06:09:58;6.50;;;3.90;;
52962;SDS011;38827;53.024;6.596;2023-06-05T06:12:24;6.60;;;3.88;;
52962;SDS011;38827;53.024;6.596;2023-06-05T06:14:50;5.32;;;3.88;;
52962;SDS011;38827;53.024;6.596;2023-06-05T06:17:16;5.95;;;3.70;;
52962;SDS011;38827;53.024;6.596;2023-06-05T06:19:42;5.20;;;3.80;;
52962;SDS011;38827;53.024;6.596;2023-06-05T06:22:08;5.28;;;3.50;;
52962;SDS011;38827;53.024;6.596;2023-06-05T06:24:40;5.38;;;3.67;;
52962;SDS011;38827;53.024;6.596;2023-06-05T06:27:10;5.20;;;3.55;;
52962;SDS011;38827;53.024;6.596;2023-06-05T06:29:47;5.22;;;3.60;;
52962;SDS011;38827;53.024;6.596;2023-06-05T06:32:17;4.50;;;3.28;;
52962;SDS011;38827;53.024;6.596;2023-06-05T06:34:43;5.63;;;3.10;;
52962;SDS011;38827;53.024;6.596;2023-06-05T06:37:12;7.10;;;3.53;;
52962;SDS011;38827;53.024;6.596;2023-06-05T06:39:40;5.13;;;3.40;;
52962;SDS011;38827;53.024;6.596;2023-06-05T06:42:06;5.85;;;3.15;;
52962;SDS011;38827;53.024;6.596;2023-06-05T06:44:34;3.97;;;2.80;;
52962;SDS011;38827;53.024;6.596;2023-06-05T06:47:00;5.70;;;3.30;;
52962;SDS011;38827;53.024;6.596;2023-06-05T06:49:26;4.43;;;3.10;;
52962;SDS011;38827;53.024;6.596;2023-06-05T06:52:01;4.30;;;3.00;;
52962;SDS011;38827;53.024;6.596;2023-06-05T06:54:39;4.70;;;2.80;;
52962;SDS011;38827;53.024;6.596;2023-06-05T06:57:07;4.13;;;3.00;;
52962;SDS011;38827;53.024;6.596;2023-06-05T06:59:33;3.80;;;2.97;;
52962;SDS011;38827;53.024;6.596;2023-06-05T07:02:15;4.43;;;3.00;;
52962;SDS011;38827;53.024;6.596;2023-06-05T07:04:55;6.07;;;2.80;;
52962;SDS011;38827;53.024;6.596;2023-06-05T07:07:21;4.68;;;2.85;;
52962;SDS011;38827;53.024;6.596;2023-06-05T07:10:02;5.13;;;2.53;;
52962;SDS011;38827;53.024;6.596;2023-06-05T07:12:28;4.13;;;2.80;;
52962;SDS011;38827;53.024;6.596;2023-06-05T07:14:54;3.95;;;2.65;;
52962;SDS011;38827;53.024;6.596;2023-06-05T07:17:32;2.45;;;2.22;;
52962;SDS011;38827;53.024;6.596;2023-06-05T07:19:58;3.50;;;2.10;;
52962;SDS011;38827;53.024;6.596;2023-06-05T07:22:23;3.15;;;2.70;;
52962;SDS011;38827;53.024;6.596;2023-06-05T07:25:25;3.22;;;2.17;;
52962;SDS011;38827;53.024;6.596;2023-06-05T07:27:57;5.45;;;2.67;;
52962;SDS011;38827;53.024;6.596;2023-06-05T07:30:25;5.05;;;2.90;;
52962;SDS011;38827;53.024;6.596;2023-06-05T07:32:57;4.85;;;3.08;;
52962;SDS011;38827;53.024;6.596;2023-06-05T07:35:22;3.65;;;2.25;;
52962;SDS011;38827;53.024;6.596;2023-06-05T07:37:49;4.05;;;2.40;;
52962;SDS011;38827;53.024;6.596;2023-06-05T07:40:21;3.78;;;2.35;;
52962;SDS011;38827;53.024;6.596;2023-06-05T07:42:46;5.03;;;2.58;;
52962;SDS011;38827;53.024;6.596;2023-06-05T07:45:12;4.00;;;2.58;;
52962;SDS011;38827;53.024;6.596;2023-06-05T07:47:47;3.10;;;2.65;;
52962;SDS011;38827;53.024;6.596;2023-06-05T07:50:13;3.75;;;2.00;;
52962;SDS011;38827;53.024;6.596;2023-06-05T07:52:57;3.45;;;2.83;;
52962;SDS011;38827;53.024;6.596;2023-06-05T07:55:35;3.75;;;2.10;;
52962;SDS011;38827;53.024;6.596;2023-06-05T07:58:04;2.30;;;2.05;;
52962;SDS011;38827;53.024;6.596;2023-06-05T08:00:29;3.80;;;2.42;;
52962;SDS011;38827;53.024;6.596;2023-06-05T08:02:56;2.47;;;1.98;;
52962;SDS011;38827;53.024;6.596;2023-06-05T08:05:25;3.92;;;1.90;;
52962;SDS011;38827;53.024;6.596;2023-06-05T08:07:51;3.10;;;2.22;;
52962;SDS011;38827;53.024;6.596;2023-06-05T08:10:32;3.58;;;2.10;;
52962;SDS011;38827;53.024;6.596;2023-06-05T08:13:03;3.50;;;1.98;;
52962;SDS011;38827;53.024;6.596;2023-06-05T08:15:32;2.30;;;1.98;;
52962;SDS011;38827;53.024;6.596;2023-06-05T08:17:58;3.75;;;2.45;;
52962;SDS011;38827;53.024;6.596;2023-06-05T08:20:23;3.93;;;2.30;;
52962;SDS011;38827;53.024;6.596;2023-06-05T08:22:49;3.40;;;2.20;;
52962;SDS011;38827;53.024;6.596;2023-06-05T08:25:15;4.28;;;2.38;;
52962;SDS011;38827;53.024;6.596;2023-06-05T08:27:41;4.43;;;2.20;;
52962;SDS011;38827;53.024;6.596;2023-06-05T08:30:06;4.28;;;2.20;;
52962;SDS011;38827;53.024;6.596;2023-06-05T08:32:40;6.05;;;2.63;;
52962;SDS011;38827;53.024;6.596;2023-06-05T08:35:06;5.57;;;2.53;;
52962;SDS011;38827;53.024;6.596;2023-06-05T08:37:32;3.75;;;2.40;;
52962;SDS011;38827;53.024;6.596;2023-06-05T08:39:58;4.30;;;2.50;;
52962;SDS011;38827;53.024;6.596;2023-06-05T08:42:28;4.07;;;2.88;;
52962;SDS011;38827;53.024;6.596;2023-06-05T08:44:54;7.35;;;2.80;;
52962;SDS011;38827;53.024;6.596;2023-06-05T08:47:20;2.90;;;2.20;;
52962;SDS011;38827;53.024;6.596;2023-06-05T08:49:47;3.35;;;2.53;;
52962;SDS011;38827;53.024;6.596;2023-06-05T08:52:19;5.15;;;2.58;;
52962;SDS011;38827;53.024;6.596;2023-06-05T08:54:47;3.22;;;2.22;;
52962;SDS011;38827;53.024;6.596;2023-06-05T08:57:13;4.82;;;2.50;;
52962;SDS011;38827;53.024;6.596;2023-06-05T08:59:42;4.13;;;2.83;;
52962;SDS011;38827;53.024;6.596;2023-06-05T09:02:12;5.32;;;2.95;;
52962;SDS011;38827;53.024;6.596;2023-06-05T09:04:40;5.60;;;3.20;;
52962;SDS011;38827;53.024;6.596;2023-06-05T09:07:06;6.40;;;3.00;;
52962;SDS011;38827;53.024;6.596;2023-06-05T09:09:33;3.73;;;2.60;;
52962;SDS011;38827;53.024;6.596;2023-06-05T09:14:28;3.38;;;2.72;;
52962;SDS011;38827;53.024;6.596;2023-06-05T09:16:56;4.47;;;2.90;;
52962;SDS011;38827;53.024;6.596;2023-06-05T09:19:22;3.38;;;2.63;;
52962;SDS011;38827;53.024;6.596;2023-06-05T09:21:52;3.42;;;2.85;;
52962;SDS011;38827;53.024;6.596;2023-06-05T09:24:20;4.68;;;2.70;;
52962;SDS011;38827;53.024;6.596;2023-06-05T09:29:30;3.22;;;2.92;;
52962;SDS011;38827;53.024;6.596;2023-06-05T09:36:52;3.10;;;2.72;;
52962;SDS011;38827;53.024;6.596;2023-06-05T09:39:27;4.25;;;2.65;;
52962;SDS011;38827;53.024;6.596;2023-06-05T09:41:55;2.70;;;2.40;;
52962;SDS011;38827;53.024;6.596;2023-06-05T09:44:22;4.97;;;3.00;;
52962;SDS011;38827;53.024;6.596;2023-06-05T09:49:25;4.72;;;2.85;;
52962;SDS011;38827;53.024;6.596;2023-06-05T09:51:58;3.08;;;2.70;;
52962;SDS011;38827;53.024;6.596;2023-06-05T09:54:26;5.13;;;3.20;;
52962;SDS011;38827;53.024;6.596;2023-06-05T09:56:56;5.57;;;3.78;;
52962;SDS011;38827;53.024;6.596;2023-06-05T09:59:29;4.25;;;3.55;;
52962;SDS011;38827;53.024;6.596;2023-06-05T10:01:58;4.88;;;3.42;;
52962;SDS011;38827;53.024;6.596;2023-06-05T10:04:50;4.47;;;3.50;;
52962;SDS011;38827;53.024;6.596;2023-06-05T10:07:19;4.50;;;2.95;;
52962;SDS011;38827;53.024;6.596;2023-06-05T10:09:47;19.17;;;4.37;;
52962;SDS011;38827;53.024;6.596;2023-06-05T10:12:15;5.82;;;3.50;;
52962;SDS011;38827;53.024;6.596;2023-06-05T10:14:42;5.75;;;3.75;;
52962;SDS011;38827;53.024;6.596;2023-06-05T10:17:08;5.40;;;3.72;;
52962;SDS011;38827;53.024;6.596;2023-06-05T10:19:36;10.65;;;3.90;;
52962;SDS011;38827;53.024;6.596;2023-06-05T10:22:06;8.50;;;3.85;;
52962;SDS011;38827;53.024;6.596;2023-06-05T10:24:35;5.13;;;3.70;;
52962;SDS011;38827;53.024;6.596;2023-06-05T10:40:44;5.00;;;3.40;;
52962;SDS011;38827;53.024;6.596;2023-06-05T10:43:32;3.85;;;3.45;;
52962;SDS011;38827;53.024;6.596;2023-06-05T10:46:32;4.47;;;3.60;;
52962;SDS011;38827;53.024;6.596;2023-06-05T10:51:48;4.57;;;3.45;;
52962;SDS011;38827;53.024;6.596;2023-06-05T10:54:15;4.65;;;3.00;;
52962;SDS011;38827;53.024;6.596;2023-06-05T10:57:04;4.07;;;3.55;;
52962;SDS011;38827;53.024;6.596;2023-06-05T10:59:35;4.18;;;3.70;;
52962;SDS011;38827;53.024;6.596;2023-06-05T11:07:21;5.13;;;3.30;;
52962;SDS011;38827;53.024;6.596;2023-06-05T11:13:12;4.50;;;3.45;;
52962;SDS011;38827;53.024;6.596;2023-06-05T11:15:16;5.50;;;3.47;;
52962;SDS011;38827;53.024;6.596;2023-06-05T11:17:47;3.72;;;3.03;;
52962;SDS011;38827;53.024;6.596;2023-06-05T11:25:39;4.07;;;3.22;;
52962;SDS011;38827;53.024;6.596;2023-06-05T11:28:06;4.18;;;3.38;;
52962;SDS011;38827;53.024;6.596;2023-06-05T11:30:42;6.10;;;3.35;;
52962;SDS011;38827;53.024;6.596;2023-06-05T11:33:09;5.13;;;2.83;;
52962;SDS011;38827;53.024;6.596;2023-06-05T11:35:41;3.85;;;3.25;;
52962;SDS011;38827;53.024;6.596;2023-06-05T11:38:15;3.17;;;2.88;;
52962;SDS011;38827;53.024;6.596;2023-06-05T11:40:43;3.75;;;2.72;;
52962;SDS011;38827;53.024;6.596;2023-06-05T11:43:10;3.72;;;2.80;;
52962;SDS011;38827;53.024;6.596;2023-06-05T11:45:37;5.60;;;3.72;;
52962;SDS011;38827;53.024;6.596;2023-06-05T11:48:12;4.03;;;2.95;;
52962;SDS011;38827;53.024;6.596;2023-06-05T11:53:27;4.38;;;2.95;;
52962;SDS011;38827;53.024;6.596;2023-06-05T11:55:54;4.70;;;3.05;;
52962;SDS011;38827;53.024;6.596;2023-06-05T11:58:40;3.80;;;2.58;;
52962;SDS011;38827;53.024;6.596;2023-06-05T12:03:41;5.10;;;2.60;;
52962;SDS011;38827;53.024;6.596;2023-06-05T12:06:07;5.13;;;2.97;;
52962;SDS011;38827;53.024;6.596;2023-06-05T12:08:34;4.63;;;2.80;;
52962;SDS011;38827;53.024;6.596;2023-06-05T12:11:21;5.53;;;3.30;;
52962;SDS011;38827;53.024;6.596;2023-06-05T12:13:54;3.60;;;2.58;;
52962;SDS011;38827;53.024;6.596;2023-06-05T12:16:31;7.10;;;2.55;;
52962;SDS011;38827;53.024;6.596;2023-06-05T12:18:58;3.50;;;2.60;;
52962;SDS011;38827;53.024;6.596;2023-06-05T12:21:25;3.80;;;2.58;;
52962;SDS011;38827;53.024;6.596;2023-06-05T12:24:00;3.53;;;2.72;;
52962;SDS011;38827;53.024;6.596;2023-06-05T12:26:29;4.35;;;2.90;;
52962;SDS011;38827;53.024;6.596;2023-06-05T12:29:33;4.80;;;2.85;;
52962;SDS011;38827;53.024;6.596;2023-06-05T12:34:51;4.65;;;2.78;;
52962;SDS011;38827;53.024;6.596;2023-06-05T12:37:24;6.43;;;3.05;;
52962;SDS011;38827;53.024;6.596;2023-06-05T12:40:00;5.93;;;2.63;;
52962;SDS011;38827;53.024;6.596;2023-06-05T12:42:33;3.83;;;2.88;;
52962;SDS011;38827;53.024;6.596;2023-06-05T12:45:06;5.85;;;2.90;;
52962;SDS011;38827;53.024;6.596;2023-06-05T12:47:33;6.35;;;2.75;;
52962;SDS011;38827;53.024;6.596;2023-06-05T12:50:03;6.32;;;3.05;;
52962;SDS011;38827;53.024;6.596;2023-06-05T12:52:31;5.15;;;2.47;;
52962;SDS011;38827;53.024;6.596;2023-06-05T12:55:00;3.00;;;2.58;;
52962;SDS011;38827;53.024;6.596;2023-06-05T12:57:32;4.53;;;2.50;;
52962;SDS011;38827;53.024;6.596;2023-06-05T13:00:00;4.53;;;2.67;;
52962;SDS011;38827;53.024;6.596;2023-06-05T13:03:05;6.47;;;2.72;;
52962;SDS011;38827;53.024;6.596;2023-06-05T13:05:31;6.13;;;3.05;;
52962;SDS011;38827;53.024;6.596;2023-06-05T13:08:18;3.40;;;2.67;;
52962;SDS011;38827;53.024;6.596;2023-06-05T13:10:44;4.45;;;2.47;;
52962;SDS011;38827;53.024;6.596;2023-06-05T13:13:10;2.97;;;2.40;;
52962;SDS011;38827;53.024;6.596;2023-06-05T13:15:35;3.05;;;2.58;;
52962;SDS011;38827;53.024;6.596;2023-06-05T13:18:01;6.23;;;2.60;;
52962;SDS011;38827;53.024;6.596;2023-06-05T13:20:34;2.93;;;2.50;;
52962;SDS011;38827;53.024;6.596;2023-06-05T13:23:03;4.72;;;2.58;;
52962;SDS011;38827;53.024;6.596;2023-06-05T13:25:42;3.55;;;2.40;;
52962;SDS011;38827;53.024;6.596;2023-06-05T13:28:11;3.30;;;2.80;;
52962;SDS011;38827;53.024;6.596;2023-06-05T13:30:36;4.32;;;2.80;;
52962;SDS011;38827;53.024;6.596;2023-06-05T13:33:02;5.10;;;2.40;;
52962;SDS011;38827;53.024;6.596;2023-06-05T13:35:28;5.73;;;2.90;;
52962;SDS011;38827;53.024;6.596;2023-06-05T13:37:57;3.40;;;2.63;;
52962;SDS011;38827;53.024;6.596;2023-06-05T13:40:25;4.43;;;2.50;;
52962;SDS011;38827;53.024;6.596;2023-06-05T13:43:07;4.90;;;2.80;;
52962;SDS011;38827;53.024;6.596;2023-06-05T13:45:42;3.80;;;2.65;;
52962;SDS011;38827;53.024;6.596;2023-06-05T13:48:26;3.13;;;2.58;;
52962;SDS011;38827;53.024;6.596;2023-06-05T13:50:53;4.10;;;2.20;;
52962;SDS011;38827;53.024;6.596;2023-06-05T13:53:18;4.60;;;2.33;;
52962;SDS011;38827;53.024;6.596;2023-06-05T13:55:55;4.72;;;2.40;;
52962;SDS011;38827;53.024;6.596;2023-06-05T13:58:21;5.20;;;2.80;;
52962;SDS011;38827;53.024;6.596;2023-06-05T14:00:50;5.43;;;2.60;;
52962;SDS011;38827;53.024;6.596;2023-06-05T14:03:20;3.63;;;2.22;;
52962;SDS011;38827;53.024;6.596;2023-06-05T14:05:46;4.50;;;2.60;;
52962;SDS011;38827;53.024;6.596;2023-06-05T14:08:24;5.78;;;2.85;;
52962;SDS011;38827;53.024;6.596;2023-06-05T14:10:53;5.70;;;2.90;;
52962;SDS011;38827;53.024;6.596;2023-06-05T14:13:19;4.30;;;2.60;;
52962;SDS011;38827;53.024;6.596;2023-06-05T14:15:47;4.15;;;2.53;;
52962;SDS011;38827;53.024;6.596;2023-06-05T14:18:19;3.22;;;2.92;;
52962;SDS011;38827;53.024;6.596;2023-06-05T14:20:44;4.07;;;2.90;;
52962;SDS011;38827;53.024;6.596;2023-06-05T14:23:10;3.43;;;2.70;;
52962;SDS011;38827;53.024;6.596;2023-06-05T14:25:36;3.17;;;2.27;;
52962;SDS011;38827;53.024;6.596;2023-06-05T14:28:13;3.03;;;2.67;;
52962;SDS011;38827;53.024;6.596;2023-06-05T14:30:47;5.57;;;3.55;;
52962;SDS011;38827;53.024;6.596;2023-06-05T14:33:19;6.43;;;3.40;;
52962;SDS011;38827;53.024;6.596;2023-06-05T14:35:53;5.55;;;3.83;;
52962;SDS011;38827;53.024;6.596;2023-06-05T14:41:08;5.00;;;3.28;;
52962;SDS011;38827;53.024;6.596;2023-06-05T14:43:33;7.05;;;3.67;;
52962;SDS011;38827;53.024;6.596;2023-06-05T14:46:00;6.15;;;4.20;;
52962;SDS011;38827;53.024;6.596;2023-06-05T14:48:26;7.30;;;3.50;;
52962;SDS011;38827;53.024;6.596;2023-06-05T14:50:51;7.00;;;3.80;;
52962;SDS011;38827;53.024;6.596;2023-06-05T14:53:18;6.27;;;3.93;;
52962;SDS011;38827;53.024;6.596;2023-06-05T14:55:44;5.50;;;3.47;;
52962;SDS011;38827;53.024;6.596;2023-06-05T14:58:10;4.00;;;3.33;;
52962;SDS011;38827;53.024;6.596;2023-06-05T15:00:36;5.05;;;3.58;;
52962;SDS011;38827;53.024;6.596;2023-06-05T15:03:12;8.63;;;3.85;;
52962;SDS011;38827;53.024;6.596;2023-06-05T15:05:44;7.57;;;4.20;;
52962;SDS011;38827;53.024;6.596;2023-06-05T15:08:10;5.47;;;3.50;;
52962;SDS011;38827;53.024;6.596;2023-06-05T15:10:36;4.90;;;3.20;;
52962;SDS011;38827;53.024;6.596;2023-06-05T15:13:02;5.70;;;3.67;;
52962;SDS011;38827;53.024;6.596;2023-06-05T15:15:28;4.93;;;3.47;;
52962;SDS011;38827;53.024;6.596;2023-06-05T15:17:54;4.35;;;3.13;;
52962;SDS011;38827;53.024;6.596;2023-06-05T15:20:22;7.60;;;3.70;;
52962;SDS011;38827;53.024;6.596;2023-06-05T15:22:48;6.22;;;3.80;;
52962;SDS011;38827;53.024;6.596;2023-06-05T15:25:14;5.37;;;3.57;;
52962;SDS011;38827;53.024;6.596;2023-06-05T15:27:39;6.67;;;3.57;;
52962;SDS011;38827;53.024;6.596;2023-06-05T15:30:06;8.23;;;3.50;;
52962;SDS011;38827;53.024;6.596;2023-06-05T15:32:32;4.60;;;3.70;;
52962;SDS011;38827;53.024;6.596;2023-06-05T15:34:58;7.47;;;3.60;;
52962;SDS011;38827;53.024;6.596;2023-06-05T15:37:26;7.23;;;3.53;;
52962;SDS011;38827;53.024;6.596;2023-06-05T15:39:56;5.90;;;3.50;;
52962;SDS011;38827;53.024;6.596;2023-06-05T15:42:34;11.53;;;4.23;;
52962;SDS011;38827;53.024;6.596;2023-06-05T15:47:43;3.83;;;3.40;;
52962;SDS011;38827;53.024;6.596;2023-06-05T15:50:09;91.17;;;32.40;;
52962;SDS011;38827;53.024;6.596;2023-06-05T15:52:36;9.15;;;5.10;;
52962;SDS011;38827;53.024;6.596;2023-06-05T15:55:03;6.85;;;3.90;;
52962;SDS011;38827;53.024;6.596;2023-06-05T15:57:29;6.32;;;3.88;;
52962;SDS011;38827;53.024;6.596;2023-06-05T15:59:55;6.82;;;3.67;;
52962;SDS011;38827;53.024;6.596;2023-06-05T16:02:21;5.28;;;3.92;;
52962;SDS011;38827;53.024;6.596;2023-06-05T16:04:47;6.53;;;4.10;;
52962;SDS011;38827;53.024;6.596;2023-06-05T16:07:13;7.45;;;4.45;;